MSC Carolina — 3ECV5 — position and weather

sailwx.info

Track history (hours):
 
Tides and Currents Weather Stations Pressure Air Temp Water Temp Dewpoint Dewpoint Depression Visibility Wind Speed Wind Dir Waves Ship Positions

MSC Carolina

Last reported at 2017-May-27 19:33 UTC. Time now 2017-May-28 16:31 UTC.
Position N 48°44' W 005°54'.

Length 275 m; draft 12.2 m.

Type: Ship (hazmat cat B). MMSI: 371475000.

Date/timePositionNaut miles runAvg speedWind from/ knotsBaromVisibWave heightAir tempDewpointWater temp
2017-May-27 19:33N 48°44' W 005°54'319.5
2017-May-27 19:23N 48°47' W 005°52'719.0
2017-May-27 19:01N 48°53' W 005°46'918.3
2017-May-27 18:30N 48°58' W 005°34'917.8
2017-May-27 17:59N 49°03' W 005°22'917.5
2017-May-27 17:27N 49°08' W 005°10'817.5
2017-May-27 17:00N 49°12' W 005°00'5218.8
2017-May-27 14:15N 49°38' W 003°51'1621.2
2017-May-27 13:30N 49°46' W 003°30'1021.3
2017-May-27 13:01N 49°52' W 003°16'1121.0
2017-May-27 12:31N 49°57' W 003°02'1020.5
2017-May-27 12:00N 50°00' W 002°47'6415.9
2017-May-27 07:57N 49°53' W 001°08'714.8
2017-May-27 07:30N 49°50' W 000°59'816.2
2017-May-27 07:00N 49°45' W 000°48'816.9
2017-May-27 06:30N 49°41' W 000°37'918.2
2017-May-27 06:01N 49°37' W 000°25'918.8
2017-May-27 05:31N 49°33' W 000°12'815.2
2017-May-27 05:00N 49°30' W 000°01'713.0
2017-May-27 04:30N 49°28' E 000°08'0 0.8
2017-May-27 03:59N 49°28' E 000°09'0 0.0
2017-May-27 03:29N 49°28' E 000°09'0 0.0
2017-May-27 02:59N 49°28' E 000°09'0 0.0
2017-May-27 02:29N 49°28' E 000°09'0 0.0
2017-May-27 01:59N 49°28' E 000°09'0 0.0
2017-May-27 01:29N 49°28' E 000°09'0 0.0
2017-May-27 00:59N 49°28' E 000°09'0 0.0
2017-May-27 00:29N 49°28' E 000°09'0 0.0
2017-May-26 23:59N 49°28' E 000°09'0 0.0
2017-May-26 23:29N 49°28' E 000°09'0 0.0
2017-May-26 22:59N 49°28' E 000°09'0 0.0
2017-May-26 22:29N 49°28' E 000°09'0 0.0
2017-May-26 21:59N 49°28' E 000°09'0 0.0
2017-May-26 21:29N 49°28' E 000°09'0 0.0
2017-May-26 20:59N 49°28' E 000°09'0 0.0
2017-May-26 20:29N 49°28' E 000°09'0 0.0
2017-May-26 19:59N 49°28' E 000°09'0 0.0
2017-May-26 19:29N 49°28' E 000°09'0 0.0
2017-May-26 18:59N 49°28' E 000°09'0 0.0
2017-May-26 18:29N 49°28' E 000°09'0 0.0
2017-May-26 17:59N 49°28' E 000°09'0 0.0
2017-May-26 17:29N 49°28' E 000°09'0 0.0
2017-May-26 16:59N 49°28' E 000°09'0 0.0
2017-May-26 16:29N 49°28' E 000°09'0 0.0
2017-May-26 15:59N 49°28' E 000°09'0 0.0
2017-May-26 15:29N 49°28' E 000°09'0 0.0
2017-May-26 14:59N 49°28' E 000°09'0 0.0
2017-May-26 14:29N 49°28' E 000°09'0 0.0
2017-May-26 13:29N 49°28' E 000°09'0 0.0
2017-May-26 12:59N 49°28' E 000°09'0 0.0
2017-May-26 12:29N 49°28' E 000°09'0 0.0
2017-May-26 11:59N 49°28' E 000°09'0 0.5
2017-May-26 11:30N 49°27' E 000°09'4 7.6
2017-May-26 11:00N 49°29' E 000°04'713.2
2017-May-26 10:31N 49°31' W 000°06'510.0
2017-May-26 10:00N 49°33' W 000°13'4 8.4
2017-May-26 09:30N 49°35' W 000°19'1 1.5
2017-May-26 09:00N 49°35' W 000°20'3 5.5
2017-May-26 08:31N 49°37' W 000°22'816.7
2017-May-26 08:01N 49°45' W 000°28'918.9
2017-May-26 07:31N 49°54' W 000°22'1019.3
2017-May-26 07:00N 50°03' W 000°17'1019.7
2017-May-26 06:30N 50°12' W 000°12'1020.0
2017-May-26 06:01N 50°22' W 000°07'918.5
2017-May-26 05:30N 50°29' E 000°02'1121.1
2017-May-26 05:01N 50°32' E 000°18'1121.5
2017-May-26 04:31N 50°35' E 000°34'1121.4
2017-May-26 04:01N 50°41' E 000°48'1121.0
2017-May-26 03:31N 50°47' E 001°01'1020.4
2017-May-26 03:00N 50°54' E 001°15'919.4
2017-May-26 02:30N 51°00' E 001°25'918.0
2017-May-26 02:01N 51°06' E 001°36'917.2
2017-May-26 01:30N 51°13' E 001°45'816.8
2017-May-26 01:01N 51°19' E 001°54'714.9
2017-May-26 00:30N 51°24' E 002°03'918.5
2017-May-26 00:00N 51°21' E 002°17'917.4
2017-May-25 23:31N 51°23' E 002°31'816.0
2017-May-25 23:01N 51°23' E 002°44'713.0
2017-May-25 22:31N 51°25' E 002°53'815.6
2017-May-25 22:01N 51°24' E 003°06'815.5
2017-May-25 21:30N 51°24' E 003°18'815.2
2017-May-25 21:00N 51°25' E 003°30'611.7
2017-May-25 20:30N 51°26' E 003°39'611.9
2017-May-25 20:01N 51°22' E 003°46'612.8
2017-May-25 19:31N 51°22' E 003°56'5 9.4
2017-May-25 19:00N 51°25' E 004°02'510.3
2017-May-25 18:30N 51°22' E 004°08'510.6
2017-May-25 18:00N 51°20' E 004°16'2 4.8
2017-May-25 17:30N 51°18' E 004°16'0 0.0
2017-May-25 17:00N 51°18' E 004°16'0 0.0
2017-May-25 16:30N 51°18' E 004°16'0 0.0
2017-May-25 16:00N 51°18' E 004°16'0 0.0
2017-May-25 15:30N 51°18' E 004°16'0 0.0
2017-May-25 15:00N 51°18' E 004°16'0 0.0
2017-May-25 14:30N 51°18' E 004°16'0 0.0
2017-May-25 13:24N 51°18' E 004°16'0 0.0
2017-May-25 13:00N 51°18' E 004°16'0 0.0
2017-May-25 12:30N 51°18' E 004°16'0 0.0
2017-May-25 12:00N 51°18' E 004°16'0 0.0
2017-May-25 11:30N 51°18' E 004°16'0 0.0
2017-May-25 11:00N 51°18' E 004°16'0 0.0
2017-May-25 10:30N 51°18' E 004°16'0 0.0
2017-May-25 10:00N 51°18' E 004°16'0 0.0
2017-May-25 09:30N 51°18' E 004°16'0 0.0
2017-May-25 09:00N 51°18' E 004°16'0 0.0
2017-May-25 08:30N 51°18' E 004°16'0 0.0
2017-May-25 08:00N 51°18' E 004°16'0 0.0
2017-May-25 07:30N 51°18' E 004°16'0 0.0
2017-May-25 07:00N 51°18' E 004°16'0 0.0
2017-May-25 06:30N 51°18' E 004°16'0 0.0
2017-May-25 06:00N 51°18' E 004°16'0 0.0
2017-May-25 05:30N 51°18' E 004°16'0 0.0
2017-May-25 05:00N 51°18' E 004°16'0 0.0
2017-May-25 04:30N 51°18' E 004°16'0 0.0
2017-May-25 04:00N 51°18' E 004°16'0 0.0
2017-May-25 03:30N 51°18' E 004°16'0 0.0
2017-May-25 03:00N 51°18' E 004°16'0 0.0
2017-May-25 02:30N 51°18' E 004°16'0 0.0
2017-May-25 02:00N 51°18' E 004°16'0 0.0
2017-May-25 01:30N 51°18' E 004°16'0 0.0
2017-May-25 00:57N 51°18' E 004°16'0 0.0
2017-May-25 00:30N 51°18' E 004°16'0 0.0
2017-May-24 23:59N 51°18' E 004°16'0 0.0
2017-May-24 23:29N 51°18' E 004°16'0 0.0
2017-May-24 22:59N 51°18' E 004°16'0 0.0
2017-May-24 22:29N 51°18' E 004°16'0 0.0
2017-May-24 21:59N 51°18' E 004°16'0 0.0
2017-May-24 21:29N 51°18' E 004°16'0 0.0
2017-May-24 20:59N 51°18' E 004°16'0 0.0
2017-May-24 20:29N 51°18' E 004°16'0 0.0
2017-May-24 19:59N 51°18' E 004°16'0 0.0
2017-May-24 19:23N 51°18' E 004°16'0 0.0
2017-May-24 18:59N 51°18' E 004°16'0 0.0
2017-May-24 18:29N 51°18' E 004°16'0 0.0
2017-May-24 17:59N 51°18' E 004°16'0 0.0
2017-May-24 17:29N 51°18' E 004°16'0 0.0
2017-May-24 16:59N 51°18' E 004°16'0 0.0
2017-May-24 16:26N 51°18' E 004°16'0 0.0
2017-May-24 16:00N 51°18' E 004°16'0 0.5
2017-May-24 15:30N 51°18' E 004°16'3 5.5
2017-May-24 15:00N 51°21' E 004°16'5 9.1
2017-May-24 14:30N 51°22' E 004°09'8 8.1
2017-May-24 13:30N 51°22' E 003°56'612.3
2017-May-24 13:00N 51°22' E 003°46'713.6
2017-May-24 12:31N 51°26' E 003°38'612.5
2017-May-24 12:00N 51°25' E 003°28'917.7
2017-May-24 11:30N 51°24' E 003°14'1020.1
2017-May-24 11:00N 51°25' E 002°58'918.5
2017-May-24 10:31N 51°23' E 002°44'3 6.6
2017-May-24 10:01N 51°25' E 002°39'2 4.7
2017-May-24 09:29N 51°27' E 002°38'0 0.2
2017-May-24 08:59N 51°27' E 002°38'0 0.2
2017-May-24 08:29N 51°27' E 002°37'0 0.0
2017-May-24 07:59N 51°27' E 002°37'0 0.0
2017-May-24 07:29N 51°27' E 002°37'0 0.0
2017-May-24 06:59N 51°27' E 002°37'0 0.0
2017-May-24 06:29N 51°27' E 002°37'0 0.0
2017-May-24 05:59N 51°27' E 002°37'0 0.2
2017-May-24 05:29N 51°27' E 002°38'0 0.2
2017-May-24 04:59N 51°27' E 002°38'0 0.2
2017-May-24 04:29N 51°27' E 002°38'0 0.1
2017-May-24 03:59N 51°27' E 002°38'0 0.0
2017-May-24 03:29N 51°27' E 002°38'0 0.1
2017-May-24 02:59N 51°27' E 002°38'0 0.0
2017-May-24 02:29N 51°27' E 002°38'0 0.0
2017-May-24 01:59N 51°27' E 002°38'0 0.0
2017-May-24 01:29N 51°27' E 002°38'0 0.0
2017-May-24 00:59N 51°27' E 002°38'0 0.0
2017-May-24 00:29N 51°27' E 002°38'0 0.0
2017-May-23 23:59N 51°27' E 002°38'0 0.0
2017-May-23 23:29N 51°27' E 002°38'0 0.0
2017-May-23 22:59N 51°27' E 002°38'0 0.0
2017-May-23 22:11N 51°27' E 002°38'0 0.1
2017-May-23 21:59N 51°27' E 002°38'0 0.0
2017-May-23 21:26N 51°27' E 002°38'0 0.0
2017-May-23 20:53N 51°27' E 002°38'0 0.3
2017-May-23 20:26N 51°27' E 002°38'0 0.2
2017-May-23 19:59N 51°27' E 002°38'0 0.1
2017-May-23 19:29N 51°27' E 002°37'0 0.0
2017-May-23 18:53N 51°27' E 002°37'0 0.0
2017-May-23 18:29N 51°27' E 002°37'0 0.0
2017-May-23 17:59N 51°27' E 002°37'0 0.0
2017-May-23 17:29N 51°27' E 002°37'0 0.0
2017-May-23 16:59N 51°27' E 002°37'0 0.1
2017-May-23 16:29N 51°27' E 002°38'0 0.3
2017-May-23 15:59N 51°27' E 002°38'0 0.1
2017-May-23 15:29N 51°27' E 002°38'0 0.0
2017-May-23 14:59N 51°27' E 002°38'0 0.0
2017-May-23 14:17N 51°27' E 002°38'0 0.0
2017-May-23 13:05N 51°27' E 002°38'0 0.1
2017-May-23 12:53N 51°27' E 002°38'0 0.0
2017-May-23 12:20N 51°27' E 002°38'0 0.0
2017-May-23 11:58N 51°27' E 002°38'0 0.0
2017-May-23 11:28N 51°27' E 002°38'0 0.0
2017-May-23 10:50N 51°27' E 002°38'0 0.0
2017-May-23 10:28N 51°27' E 002°38'0 0.1
2017-May-23 09:58N 51°27' E 002°38'0 0.0
2017-May-23 09:28N 51°27' E 002°38'0 0.1
2017-May-23 08:58N 51°27' E 002°38'0 0.1
2017-May-23 08:28N 51°27' E 002°38'0 0.1
2017-May-23 07:58N 51°27' E 002°38'0 0.1
2017-May-23 07:28N 51°27' E 002°38'0 0.1
2017-May-23 06:13N 51°27' E 002°37'0 0.0
2017-May-23 05:55N 51°27' E 002°37'0 0.0
2017-May-23 05:28N 51°27' E 002°37'0 0.1
2017-May-23 04:58N 51°27' E 002°38'0 0.2
2017-May-23 04:28N 51°27' E 002°38'0 0.1
2017-May-23 03:58N 51°27' E 002°38'0 0.0
2017-May-23 03:28N 51°27' E 002°38'0 0.1
2017-May-23 02:58N 51°27' E 002°38'0 0.0
2017-May-23 02:28N 51°27' E 002°38'0 0.1
2017-May-23 01:58N 51°27' E 002°38'0 0.0
2017-May-23 00:40N 51°27' E 002°38'0 0.0
2017-May-23 00:22N 51°27' E 002°38'0 0.0
2017-May-22 23:46N 51°27' E 002°38'0 0.0
2017-May-22 21:46N 51°27' E 002°38'0 0.0
2017-May-22 21:28N 51°27' E 002°38'0 0.1
2017-May-22 20:49N 51°27' E 002°38'0 0.2
2017-May-22 19:28N 51°27' E 002°37'0 0.0
2017-May-22 18:52N 51°27' E 002°37'0 0.0
2017-May-22 18:22N 51°27' E 002°37'0 0.0
2017-May-22 17:58N 51°27' E 002°37'0 0.0
2017-May-22 12:40N 51°27' E 002°38'0 0.1
2017-May-22 12:28N 51°27' E 002°38'1 1.2
2017-May-22 12:00N 51°27' E 002°38'3 5.7
2017-May-22 11:28N 51°24' E 002°37'3 7.3
2017-May-22 11:00N 51°22' E 002°32'4 7.9
2017-May-22 10:30N 51°21' E 002°26'612.4
2017-May-22 10:01N 51°19' E 002°17'917.8
2017-May-22 09:30N 51°22' E 002°03'918.2
2017-May-22 09:01N 51°29' E 001°54'918.3
2017-May-22 08:31N 51°37' E 001°46'918.6
2017-May-22 08:01N 51°46' E 001°43'714.0
2017-May-22 07:31N 51°51' E 001°35'510.8
2017-May-22 07:01N 51°46' E 001°31'714.2
2017-May-22 06:31N 51°40' E 001°25'714.4
2017-May-22 06:01N 51°35' E 001°16'816.8
2017-May-22 05:30N 51°31' E 001°04'816.6
2017-May-22 05:00N 51°29' E 000°51'816.9
2017-May-22 04:30N 51°30' E 000°38'5 9.3
2017-May-22 04:01N 51°30' E 000°30'0 0.0
2017-May-22 03:31N 51°30' E 000°30'0 0.0
2017-May-22 03:00N 51°30' E 000°30'0 0.0
2017-May-22 02:25N 51°30' E 000°30'0 0.0
2017-May-22 02:00N 51°30' E 000°30'0 0.0
2017-May-22 01:30N 51°30' E 000°30'0 0.0
2017-May-22 01:01N 51°30' E 000°30'0 0.0
2017-May-22 00:31N 51°30' E 000°30'0 0.0
2017-May-22 00:01N 51°30' E 000°30'0 0.0
2017-May-21 23:29N 51°30' E 000°30'0 0.0
2017-May-21 23:00N 51°30' E 000°30'0 0.0
2017-May-21 22:31N 51°30' E 000°30'0 0.0
2017-May-21 22:01N 51°30' E 000°30'0 0.0
2017-May-21 21:31N 51°30' E 000°30'0 0.0
2017-May-21 21:00N 51°30' E 000°30'0 0.0
2017-May-21 20:31N 51°30' E 000°30'0 0.0
2017-May-21 19:57N 51°30' E 000°30'0 0.0
2017-May-21 19:30N 51°30' E 000°30'0 0.0
2017-May-21 19:00N 51°30' E 000°30'0 0.0
2017-May-21 18:30N 51°30' E 000°30'0 0.0
2017-May-21 18:00N 51°30' E 000°30'0 0.0
2017-May-21 17:30N 51°30' E 000°30'0 0.0
2017-May-21 16:59N 51°30' E 000°30'0 0.0
2017-May-21 16:30N 51°30' E 000°30'0 0.0
2017-May-21 16:00N 51°30' E 000°30'0 0.0
2017-May-21 15:31N 51°30' E 000°30'0 0.0
2017-May-21 15:00N 51°30' E 000°30'0 0.0
2017-May-21 14:01N 51°30' E 000°30'0 0.0
2017-May-21 13:31N 51°30' E 000°30'0 0.0
2017-May-21 13:01N 51°30' E 000°30'0 0.0
2017-May-21 12:30N 51°30' E 000°30'0 0.0
2017-May-21 12:00N 51°30' E 000°30'0 0.0
2017-May-21 11:30N 51°30' E 000°30'0 0.0
2017-May-21 11:00N 51°30' E 000°30'0 0.0
2017-May-21 10:30N 51°30' E 000°30'0 0.0
2017-May-21 10:00N 51°30' E 000°30'0 0.0
2017-May-21 09:31N 51°30' E 000°30'0 0.0
2017-May-21 09:01N 51°30' E 000°30'0 0.0
2017-May-21 08:31N 51°30' E 000°30'0 0.0
2017-May-21 08:00N 51°30' E 000°30'0 0.0
2017-May-21 07:31N 51°30' E 000°30'0 0.0
2017-May-21 07:01N 51°30' E 000°30'0 0.0
2017-May-21 06:30N 51°30' E 000°30'0 0.0
2017-May-21 06:01N 51°30' E 000°30'0 0.0
2017-May-21 05:30N 51°30' E 000°30'0 0.0
2017-May-21 05:01N 51°30' E 000°30'0 0.0
2017-May-21 04:31N 51°30' E 000°30'0 0.0
2017-May-21 04:01N 51°30' E 000°30'0 0.0
2017-May-21 03:31N 51°30' E 000°30'0 0.0
2017-May-21 03:01N 51°30' E 000°30'0 0.0
2017-May-21 02:31N 51°30' E 000°30'0 0.0
2017-May-21 02:00N 51°30' E 000°30'0 0.0
2017-May-21 01:30N 51°30' E 000°30'0 0.0
2017-May-21 01:01N 51°30' E 000°30'0 0.0
2017-May-21 00:30N 51°30' E 000°30'0 0.0
2017-May-21 00:01N 51°30' E 000°30'0 0.0
2017-May-20 23:31N 51°30' E 000°30'0 0.0
2017-May-20 23:01N 51°30' E 000°30'0 0.0
2017-May-20 22:31N 51°30' E 000°30'0 0.0
2017-May-20 22:01N 51°30' E 000°30'0 0.0
2017-May-20 21:31N 51°30' E 000°30'0 0.0
2017-May-20 21:00N 51°30' E 000°30'0 0.0
2017-May-20 20:29N 51°30' E 000°30'0 0.0
2017-May-20 20:00N 51°30' E 000°30'0 0.0
2017-May-20 19:30N 51°30' E 000°30'0 0.0
2017-May-20 19:01N 51°30' E 000°30'0 0.0
2017-May-20 18:30N 51°30' E 000°30'0 0.0
2017-May-20 18:01N 51°30' E 000°30'0 0.0
2017-May-20 17:31N 51°30' E 000°30'0 0.0
2017-May-20 17:00N 51°30' E 000°30'0 0.0
2017-May-20 16:30N 51°30' E 000°30'0 0.0
2017-May-20 16:00N 51°30' E 000°30'0 0.0
2017-May-20 15:31N 51°30' E 000°30'0 0.0
2017-May-20 15:01N 51°30' E 000°30'0 0.5
2017-May-20 14:31N 51°30' E 000°30'8 7.9
2017-May-20 13:30N 51°30' E 000°43'917.1
2017-May-20 13:00N 51°29' E 000°57'918.0
2017-May-20 12:30N 51°33' E 001°10'917.6
2017-May-20 12:00N 51°38' E 001°21'918.1
2017-May-20 11:30N 51°45' E 001°31'816.9
2017-May-20 11:00N 51°52' E 001°38'4 7.9
2017-May-20 10:30N 51°53' E 001°45'1 2.8
2017-May-20 10:00N 51°54' E 001°47'1 1.5
2017-May-20 09:30N 51°53' E 001°47'1 2.3
2017-May-20 09:01N 51°52' E 001°48'1 2.2
2017-May-20 08:31N 51°51' E 001°48'4 8.5
2017-May-20 08:00N 51°47' E 001°48'612.2
2017-May-20 07:30N 51°41' E 001°50'612.5
2017-May-20 07:00N 51°35' E 001°53'713.1
2017-May-20 06:30N 51°29' E 001°58'612.9
2017-May-20 06:01N 51°22' E 002°00'714.3
2017-May-20 05:30N 51°17' E 001°54'714.5
2017-May-20 05:00N 51°11' E 001°46'714.5
2017-May-20 04:30N 51°06' E 001°38'714.4
2017-May-20 04:01N 51°01' E 001°31'815.1
2017-May-20 03:30N 50°54' E 001°25'815.8
2017-May-20 03:00N 50°46' E 001°22'815.2
2017-May-20 02:30N 50°40' E 001°16'3615.5
2017-May-20 00:12N 50°25' E 000°25'315.9
2017-May-20 00:00N 50°24' E 000°20'815.7
2017-May-19 23:30N 50°21' E 000°09'815.7
2017-May-19 23:00N 50°19' W 000°03'815.8
2017-May-19 22:30N 50°18' W 000°15'815.5
2017-May-19 22:00N 50°16' W 000°27'8814.8
2017-May-19 16:05N 49°52' W 002°39'314.8
2017-May-19 15:52N 49°51' W 002°44'514.8
2017-May-19 15:31N 49°50' W 002°52'714.7
2017-May-19 15:00N 49°46' W 003°02'1514.8
2017-May-19 14:01N 49°38' W 003°21'1214.7
2017-May-19 13:13N 49°32' W 003°37'6314.8
2017-May-19 08:59N 49°01' W 005°00'715.4
2017-May-19 08:31N 48°58' W 005°10'815.3
2017-May-19 08:00N 48°54' W 005°20'815.2
2017-May-19 07:30N 48°50' W 005°30'  
Track history (hours):
 
Tides and Currents Weather Stations Pressure Air Temp Water Temp Dewpoint Dewpoint Depression Visibility Wind Speed Wind Dir Waves Ship Positions

MSC Carolina

Last reported at 2017-May-27 19:33 UTC. Time now 2017-May-28 16:31 UTC.
Position N 48°44' W 005°54'.

Length 275 m; draft 12.2 m.

Type: Ship (hazmat cat B). MMSI: 371475000.

Date/timePositionNaut miles runAvg speedWind from/ knotsBaromVisibWave heightAir tempDewpointWater temp
2017-May-27 19:33N 48°44' W 005°54'319.5
2017-May-27 19:23N 48°47' W 005°52'719.0
2017-May-27 19:01N 48°53' W 005°46'918.3
2017-May-27 18:30N 48°58' W 005°34'917.8
2017-May-27 17:59N 49°03' W 005°22'917.5
2017-May-27 17:27N 49°08' W 005°10'817.5
2017-May-27 17:00N 49°12' W 005°00'5218.8
2017-May-27 14:15N 49°38' W 003°51'1621.2
2017-May-27 13:30N 49°46' W 003°30'1021.3
2017-May-27 13:01N 49°52' W 003°16'1121.0
2017-May-27 12:31N 49°57' W 003°02'1020.5
2017-May-27 12:00N 50°00' W 002°47'6415.9
2017-May-27 07:57N 49°53' W 001°08'714.8
2017-May-27 07:30N 49°50' W 000°59'816.2
2017-May-27 07:00N 49°45' W 000°48'816.9
2017-May-27 06:30N 49°41' W 000°37'918.2
2017-May-27 06:01N 49°37' W 000°25'918.8
2017-May-27 05:31N 49°33' W 000°12'815.2
2017-May-27 05:00N 49°30' W 000°01'713.0
2017-May-27 04:30N 49°28' E 000°08'0 0.8
2017-May-27 03:59N 49°28' E 000°09'0 0.0
2017-May-27 03:29N 49°28' E 000°09'0 0.0
2017-May-27 02:59N 49°28' E 000°09'0 0.0
2017-May-27 02:29N 49°28' E 000°09'0 0.0
2017-May-27 01:59N 49°28' E 000°09'0 0.0
2017-May-27 01:29N 49°28' E 000°09'0 0.0
2017-May-27 00:59N 49°28' E 000°09'0 0.0
2017-May-27 00:29N 49°28' E 000°09'0 0.0
2017-May-26 23:59N 49°28' E 000°09'0 0.0
2017-May-26 23:29N 49°28' E 000°09'0 0.0
2017-May-26 22:59N 49°28' E 000°09'0 0.0
2017-May-26 22:29N 49°28' E 000°09'0 0.0
2017-May-26 21:59N 49°28' E 000°09'0 0.0
2017-May-26 21:29N 49°28' E 000°09'0 0.0
2017-May-26 20:59N 49°28' E 000°09'0 0.0
2017-May-26 20:29N 49°28' E 000°09'0 0.0
2017-May-26 19:59N 49°28' E 000°09'0 0.0
2017-May-26 19:29N 49°28' E 000°09'0 0.0
2017-May-26 18:59N 49°28' E 000°09'0 0.0
2017-May-26 18:29N 49°28' E 000°09'0 0.0
2017-May-26 17:59N 49°28' E 000°09'0 0.0
2017-May-26 17:29N 49°28' E 000°09'0 0.0
2017-May-26 16:59N 49°28' E 000°09'0 0.0
2017-May-26 16:29N 49°28' E 000°09'0 0.0
2017-May-26 15:59N 49°28' E 000°09'0 0.0
2017-May-26 15:29N 49°28' E 000°09'0 0.0
2017-May-26 14:59N 49°28' E 000°09'0 0.0
2017-May-26 14:29N 49°28' E 000°09'0 0.0
2017-May-26 13:29N 49°28' E 000°09'0 0.0
2017-May-26 12:59N 49°28' E 000°09'0 0.0
2017-May-26 12:29N 49°28' E 000°09'0 0.0
2017-May-26 11:59N 49°28' E 000°09'0 0.5
2017-May-26 11:30N 49°27' E 000°09'4 7.6
2017-May-26 11:00N 49°29' E 000°04'713.2
2017-May-26 10:31N 49°31' W 000°06'510.0
2017-May-26 10:00N 49°33' W 000°13'4 8.4
2017-May-26 09:30N 49°35' W 000°19'1 1.5
2017-May-26 09:00N 49°35' W 000°20'3 5.5
2017-May-26 08:31N 49°37' W 000°22'816.7
2017-May-26 08:01N 49°45' W 000°28'918.9
2017-May-26 07:31N 49°54' W 000°22'1019.3
2017-May-26 07:00N 50°03' W 000°17'1019.7
2017-May-26 06:30N 50°12' W 000°12'1020.0
2017-May-26 06:01N 50°22' W 000°07'918.5
2017-May-26 05:30N 50°29' E 000°02'1121.1
2017-May-26 05:01N 50°32' E 000°18'1121.5
2017-May-26 04:31N 50°35' E 000°34'1121.4
2017-May-26 04:01N 50°41' E 000°48'1121.0
2017-May-26 03:31N 50°47' E 001°01'1020.4
2017-May-26 03:00N 50°54' E 001°15'919.4
2017-May-26 02:30N 51°00' E 001°25'918.0
2017-May-26 02:01N 51°06' E 001°36'917.2
2017-May-26 01:30N 51°13' E 001°45'816.8
2017-May-26 01:01N 51°19' E 001°54'714.9
2017-May-26 00:30N 51°24' E 002°03'918.5
2017-May-26 00:00N 51°21' E 002°17'917.4
2017-May-25 23:31N 51°23' E 002°31'816.0
2017-May-25 23:01N 51°23' E 002°44'713.0
2017-May-25 22:31N 51°25' E 002°53'815.6
2017-May-25 22:01N 51°24' E 003°06'815.5
2017-May-25 21:30N 51°24' E 003°18'815.2
2017-May-25 21:00N 51°25' E 003°30'611.7
2017-May-25 20:30N 51°26' E 003°39'611.9
2017-May-25 20:01N 51°22' E 003°46'612.8
2017-May-25 19:31N 51°22' E 003°56'5 9.4
2017-May-25 19:00N 51°25' E 004°02'510.3
2017-May-25 18:30N 51°22' E 004°08'510.6
2017-May-25 18:00N 51°20' E 004°16'2 4.8
2017-May-25 17:30N 51°18' E 004°16'0 0.0
2017-May-25 17:00N 51°18' E 004°16'0 0.0
2017-May-25 16:30N 51°18' E 004°16'0 0.0
2017-May-25 16:00N 51°18' E 004°16'0 0.0
2017-May-25 15:30N 51°18' E 004°16'0 0.0
2017-May-25 15:00N 51°18' E 004°16'0 0.0
2017-May-25 14:30N 51°18' E 004°16'0 0.0
2017-May-25 13:24N 51°18' E 004°16'0 0.0
2017-May-25 13:00N 51°18' E 004°16'0 0.0
2017-May-25 12:30N 51°18' E 004°16'0 0.0
2017-May-25 12:00N 51°18' E 004°16'0 0.0
2017-May-25 11:30N 51°18' E 004°16'0 0.0
2017-May-25 11:00N 51°18' E 004°16'0 0.0
2017-May-25 10:30N 51°18' E 004°16'0 0.0
2017-May-25 10:00N 51°18' E 004°16'0 0.0
2017-May-25 09:30N 51°18' E 004°16'0 0.0
2017-May-25 09:00N 51°18' E 004°16'0 0.0
2017-May-25 08:30N 51°18' E 004°16'0 0.0
2017-May-25 08:00N 51°18' E 004°16'0 0.0
2017-May-25 07:30N 51°18' E 004°16'0 0.0
2017-May-25 07:00N 51°18' E 004°16'0 0.0
2017-May-25 06:30N 51°18' E 004°16'0 0.0
2017-May-25 06:00N 51°18' E 004°16'0 0.0
2017-May-25 05:30N 51°18' E 004°16'0 0.0
2017-May-25 05:00N 51°18' E 004°16'0 0.0
2017-May-25 04:30N 51°18' E 004°16'0 0.0
2017-May-25 04:00N 51°18' E 004°16'0 0.0
2017-May-25 03:30N 51°18' E 004°16'0 0.0
2017-May-25 03:00N 51°18' E 004°16'0 0.0
2017-May-25 02:30N 51°18' E 004°16'0 0.0
2017-May-25 02:00N 51°18' E 004°16'0 0.0
2017-May-25 01:30N 51°18' E 004°16'0 0.0
2017-May-25 00:57N 51°18' E 004°16'0 0.0
2017-May-25 00:30N 51°18' E 004°16'0 0.0
2017-May-24 23:59N 51°18' E 004°16'0 0.0
2017-May-24 23:29N 51°18' E 004°16'0 0.0
2017-May-24 22:59N 51°18' E 004°16'0 0.0
2017-May-24 22:29N 51°18' E 004°16'0 0.0
2017-May-24 21:59N 51°18' E 004°16'0 0.0
2017-May-24 21:29N 51°18' E 004°16'0 0.0
2017-May-24 20:59N 51°18' E 004°16'0 0.0
2017-May-24 20:29N 51°18' E 004°16'0 0.0
2017-May-24 19:59N 51°18' E 004°16'0 0.0
2017-May-24 19:23N 51°18' E 004°16'0 0.0
2017-May-24 18:59N 51°18' E 004°16'0 0.0
2017-May-24 18:29N 51°18' E 004°16'0 0.0
2017-May-24 17:59N 51°18' E 004°16'0 0.0
2017-May-24 17:29N 51°18' E 004°16'0 0.0
2017-May-24 16:59N 51°18' E 004°16'0 0.0
2017-May-24 16:26N 51°18' E 004°16'0 0.0
2017-May-24 16:00N 51°18' E 004°16'0 0.5
2017-May-24 15:30N 51°18' E 004°16'3 5.5
2017-May-24 15:00N 51°21' E 004°16'5 9.1
2017-May-24 14:30N 51°22' E 004°09'8 8.1
2017-May-24 13:30N 51°22' E 003°56'612.3
2017-May-24 13:00N 51°22' E 003°46'713.6
2017-May-24 12:31N 51°26' E 003°38'612.5
2017-May-24 12:00N 51°25' E 003°28'917.7
2017-May-24 11:30N 51°24' E 003°14'1020.1
2017-May-24 11:00N 51°25' E 002°58'918.5
2017-May-24 10:31N 51°23' E 002°44'3 6.6
2017-May-24 10:01N 51°25' E 002°39'2 4.7
2017-May-24 09:29N 51°27' E 002°38'0 0.2
2017-May-24 08:59N 51°27' E 002°38'0 0.2
2017-May-24 08:29N 51°27' E 002°37'0 0.0
2017-May-24 07:59N 51°27' E 002°37'0 0.0
2017-May-24 07:29N 51°27' E 002°37'0 0.0
2017-May-24 06:59N 51°27' E 002°37'0 0.0
2017-May-24 06:29N 51°27' E 002°37'0 0.0
2017-May-24 05:59N 51°27' E 002°37'0 0.2
2017-May-24 05:29N 51°27' E 002°38'0 0.2
2017-May-24 04:59N 51°27' E 002°38'0 0.2
2017-May-24 04:29N 51°27' E 002°38'0 0.1
2017-May-24 03:59N 51°27' E 002°38'0 0.0
2017-May-24 03:29N 51°27' E 002°38'0 0.1
2017-May-24 02:59N 51°27' E 002°38'0 0.0
2017-May-24 02:29N 51°27' E 002°38'0 0.0
2017-May-24 01:59N 51°27' E 002°38'0 0.0
2017-May-24 01:29N 51°27' E 002°38'0 0.0
2017-May-24 00:59N 51°27' E 002°38'0 0.0
2017-May-24 00:29N 51°27' E 002°38'0 0.0
2017-May-23 23:59N 51°27' E 002°38'0 0.0
2017-May-23 23:29N 51°27' E 002°38'0 0.0
2017-May-23 22:59N 51°27' E 002°38'0 0.0
2017-May-23 22:11N 51°27' E 002°38'0 0.1
2017-May-23 21:59N 51°27' E 002°38'0 0.0
2017-May-23 21:26N 51°27' E 002°38'0 0.0
2017-May-23 20:53N 51°27' E 002°38'0 0.3
2017-May-23 20:26N 51°27' E 002°38'0 0.2
2017-May-23 19:59N 51°27' E 002°38'0 0.1
2017-May-23 19:29N 51°27' E 002°37'0 0.0
2017-May-23 18:53N 51°27' E 002°37'0 0.0
2017-May-23 18:29N 51°27' E 002°37'0 0.0
2017-May-23 17:59N 51°27' E 002°37'0 0.0
2017-May-23 17:29N 51°27' E 002°37'0 0.0
2017-May-23 16:59N 51°27' E 002°37'0 0.1
2017-May-23 16:29N 51°27' E 002°38'0 0.3
2017-May-23 15:59N 51°27' E 002°38'0 0.1
2017-May-23 15:29N 51°27' E 002°38'0 0.0
2017-May-23 14:59N 51°27' E 002°38'0 0.0
2017-May-23 14:17N 51°27' E 002°38'0 0.0
2017-May-23 13:05N 51°27' E 002°38'0 0.1
2017-May-23 12:53N 51°27' E 002°38'0 0.0
2017-May-23 12:20N 51°27' E 002°38'0 0.0
2017-May-23 11:58N 51°27' E 002°38'0 0.0
2017-May-23 11:28N 51°27' E 002°38'0 0.0
2017-May-23 10:50N 51°27' E 002°38'0 0.0
2017-May-23 10:28N 51°27' E 002°38'0 0.1
2017-May-23 09:58N 51°27' E 002°38'0 0.0
2017-May-23 09:28N 51°27' E 002°38'0 0.1
2017-May-23 08:58N 51°27' E 002°38'0 0.1
2017-May-23 08:28N 51°27' E 002°38'0 0.1
2017-May-23 07:58N 51°27' E 002°38'0 0.1
2017-May-23 07:28N 51°27' E 002°38'0 0.1
2017-May-23 06:13N 51°27' E 002°37'0 0.0
2017-May-23 05:55N 51°27' E 002°37'0 0.0
2017-May-23 05:28N 51°27' E 002°37'0 0.1
2017-May-23 04:58N 51°27' E 002°38'0 0.2
2017-May-23 04:28N 51°27' E 002°38'0 0.1
2017-May-23 03:58N 51°27' E 002°38'0 0.0
2017-May-23 03:28N 51°27' E 002°38'0 0.1
2017-May-23 02:58N 51°27' E 002°38'0 0.0
2017-May-23 02:28N 51°27' E 002°38'0 0.1
2017-May-23 01:58N 51°27' E 002°38'0 0.0
2017-May-23 00:40N 51°27' E 002°38'0 0.0
2017-May-23 00:22N 51°27' E 002°38'0 0.0
2017-May-22 23:46N 51°27' E 002°38'0 0.0
2017-May-22 21:46N 51°27' E 002°38'0 0.0
2017-May-22 21:28N 51°27' E 002°38'0 0.1
2017-May-22 20:49N 51°27' E 002°38'0 0.2
2017-May-22 19:28N 51°27' E 002°37'0 0.0
2017-May-22 18:52N 51°27' E 002°37'0 0.0
2017-May-22 18:22N 51°27' E 002°37'0 0.0
2017-May-22 17:58N 51°27' E 002°37'0 0.0
2017-May-22 12:40N 51°27' E 002°38'0 0.1
2017-May-22 12:28N 51°27' E 002°38'1 1.2
2017-May-22 12:00N 51°27' E 002°38'3 5.7
2017-May-22 11:28N 51°24' E 002°37'3 7.3
2017-May-22 11:00N 51°22' E 002°32'4 7.9
2017-May-22 10:30N 51°21' E 002°26'612.4
2017-May-22 10:01N 51°19' E 002°17'917.8
2017-May-22 09:30N 51°22' E 002°03'918.2
2017-May-22 09:01N 51°29' E 001°54'918.3
2017-May-22 08:31N 51°37' E 001°46'918.6
2017-May-22 08:01N 51°46' E 001°43'714.0
2017-May-22 07:31N 51°51' E 001°35'510.8
2017-May-22 07:01N 51°46' E 001°31'714.2
2017-May-22 06:31N 51°40' E 001°25'714.4
2017-May-22 06:01N 51°35' E 001°16'816.8
2017-May-22 05:30N 51°31' E 001°04'816.6
2017-May-22 05:00N 51°29' E 000°51'816.9
2017-May-22 04:30N 51°30' E 000°38'5 9.3
2017-May-22 04:01N 51°30' E 000°30'0 0.0
2017-May-22 03:31N 51°30' E 000°30'0 0.0
2017-May-22 03:00N 51°30' E 000°30'0 0.0
2017-May-22 02:25N 51°30' E 000°30'0 0.0
2017-May-22 02:00N 51°30' E 000°30'0 0.0
2017-May-22 01:30N 51°30' E 000°30'0 0.0
2017-May-22 01:01N 51°30' E 000°30'0 0.0
2017-May-22 00:31N 51°30' E 000°30'0 0.0
2017-May-22 00:01N 51°30' E 000°30'0 0.0
2017-May-21 23:29N 51°30' E 000°30'0 0.0
2017-May-21 23:00N 51°30' E 000°30'0 0.0
2017-May-21 22:31N 51°30' E 000°30'0 0.0
2017-May-21 22:01N 51°30' E 000°30'0 0.0
2017-May-21 21:31N 51°30' E 000°30'0 0.0
2017-May-21 21:00N 51°30' E 000°30'0 0.0
2017-May-21 20:31N 51°30' E 000°30'0 0.0
2017-May-21 19:57N 51°30' E 000°30'0 0.0
2017-May-21 19:30N 51°30' E 000°30'0 0.0
2017-May-21 19:00N 51°30' E 000°30'0 0.0
2017-May-21 18:30N 51°30' E 000°30'0 0.0
2017-May-21 18:00N 51°30' E 000°30'0 0.0
2017-May-21 17:30N 51°30' E 000°30'0 0.0
2017-May-21 16:59N 51°30' E 000°30'0 0.0
2017-May-21 16:30N 51°30' E 000°30'0 0.0
2017-May-21 16:00N 51°30' E 000°30'0 0.0
2017-May-21 15:31N 51°30' E 000°30'0 0.0
2017-May-21 15:00N 51°30' E 000°30'0 0.0
2017-May-21 14:01N 51°30' E 000°30'0 0.0
2017-May-21 13:31N 51°30' E 000°30'0 0.0
2017-May-21 13:01N 51°30' E 000°30'0 0.0
2017-May-21 12:30N 51°30' E 000°30'0 0.0
2017-May-21 12:00N 51°30' E 000°30'0 0.0
2017-May-21 11:30N 51°30' E 000°30'0 0.0
2017-May-21 11:00N 51°30' E 000°30'0 0.0
2017-May-21 10:30N 51°30' E 000°30'0 0.0
2017-May-21 10:00N 51°30' E 000°30'0 0.0
2017-May-21 09:31N 51°30' E 000°30'0 0.0
2017-May-21 09:01N 51°30' E 000°30'0 0.0
2017-May-21 08:31N 51°30' E 000°30'0 0.0
2017-May-21 08:00N 51°30' E 000°30'0 0.0
2017-May-21 07:31N 51°30' E 000°30'0 0.0
2017-May-21 07:01N 51°30' E 000°30'0 0.0
2017-May-21 06:30N 51°30' E 000°30'0 0.0
2017-May-21 06:01N 51°30' E 000°30'0 0.0
2017-May-21 05:30N 51°30' E 000°30'0 0.0
2017-May-21 05:01N 51°30' E 000°30'0 0.0
2017-May-21 04:31N 51°30' E 000°30'0 0.0
2017-May-21 04:01N 51°30' E 000°30'0 0.0
2017-May-21 03:31N 51°30' E 000°30'0 0.0
2017-May-21 03:01N 51°30' E 000°30'0 0.0
2017-May-21 02:31N 51°30' E 000°30'0 0.0
2017-May-21 02:00N 51°30' E 000°30'0 0.0
2017-May-21 01:30N 51°30' E 000°30'0 0.0
2017-May-21 01:01N 51°30' E 000°30'0 0.0
2017-May-21 00:30N 51°30' E 000°30'0 0.0
2017-May-21 00:01N 51°30' E 000°30'0 0.0
2017-May-20 23:31N 51°30' E 000°30'0 0.0
2017-May-20 23:01N 51°30' E 000°30'0 0.0
2017-May-20 22:31N 51°30' E 000°30'0 0.0
2017-May-20 22:01N 51°30' E 000°30'0 0.0
2017-May-20 21:31N 51°30' E 000°30'0 0.0
2017-May-20 21:00N 51°30' E 000°30'0 0.0
2017-May-20 20:29N 51°30' E 000°30'0 0.0
2017-May-20 20:00N 51°30' E 000°30'0 0.0
2017-May-20 19:30N 51°30' E 000°30'0 0.0
2017-May-20 19:01N 51°30' E 000°30'0 0.0
2017-May-20 18:30N 51°30' E 000°30'0 0.0
2017-May-20 18:01N 51°30' E 000°30'0 0.0
2017-May-20 17:31N 51°30' E 000°30'0 0.0
2017-May-20 17:00N 51°30' E 000°30'0 0.0
2017-May-20 16:30N 51°30' E 000°30'0 0.0
2017-May-20 16:00N 51°30' E 000°30'0 0.0
2017-May-20 15:31N 51°30' E 000°30'0 0.0
2017-May-20 15:01N 51°30' E 000°30'0 0.5
2017-May-20 14:31N 51°30' E 000°30'8 7.9
2017-May-20 13:30N 51°30' E 000°43'917.1
2017-May-20 13:00N 51°29' E 000°57'918.0
2017-May-20 12:30N 51°33' E 001°10'917.6
2017-May-20 12:00N 51°38' E 001°21'918.1
2017-May-20 11:30N 51°45' E 001°31'816.9
2017-May-20 11:00N 51°52' E 001°38'4 7.9
2017-May-20 10:30N 51°53' E 001°45'1 2.8
2017-May-20 10:00N 51°54' E 001°47'1 1.5
2017-May-20 09:30N 51°53' E 001°47'1 2.3
2017-May-20 09:01N 51°52' E 001°48'1 2.2
2017-May-20 08:31N 51°51' E 001°48'4 8.5
2017-May-20 08:00N 51°47' E 001°48'612.2
2017-May-20 07:30N 51°41' E 001°50'612.5
2017-May-20 07:00N 51°35' E 001°53'713.1
2017-May-20 06:30N 51°29' E 001°58'612.9
2017-May-20 06:01N 51°22' E 002°00'714.3
2017-May-20 05:30N 51°17' E 001°54'714.5
2017-May-20 05:00N 51°11' E 001°46'714.5
2017-May-20 04:30N 51°06' E 001°38'714.4
2017-May-20 04:01N 51°01' E 001°31'815.1
2017-May-20 03:30N 50°54' E 001°25'815.8
2017-May-20 03:00N 50°46' E 001°22'815.2
2017-May-20 02:30N 50°40' E 001°16'3615.5
2017-May-20 00:12N 50°25' E 000°25'315.9
2017-May-20 00:00N 50°24' E 000°20'815.7
2017-May-19 23:30N 50°21' E 000°09'815.7
2017-May-19 23:00N 50°19' W 000°03'815.8
2017-May-19 22:30N 50°18' W 000°15'815.5
2017-May-19 22:00N 50°16' W 000°27'8814.8
2017-May-19 16:05N 49°52' W 002°39'314.8
2017-May-19 15:52N 49°51' W 002°44'514.8
2017-May-19 15:31N 49°50' W 002°52'714.7
2017-May-19 15:00N 49°46' W 003°02'1514.8
2017-May-19 14:01N 49°38' W 003°21'1214.7
2017-May-19 13:13N 49°32' W 003°37'6314.8
2017-May-19 08:59N 49°01' W 005°00'715.4
2017-May-19 08:31N 48°58' W 005°10'815.3
2017-May-19 08:00N 48°54' W 005°20'815.2
2017-May-19 07:30N 48°50' W 005°30'  

Dump ship's entire track history